sensor_id;sensor_type;location;lat;lon;timestamp;P1;durP1;ratioP1;P2;durP2;ratioP2
34212;SDS011;20477;51.390;8.102;2023-04-16T00:01:16;260.10;;;43.22;;
34212;SDS011;20477;51.390;8.102;2023-04-16T00:03:44;378.15;;;50.28;;
34212;SDS011;20477;51.390;8.102;2023-04-16T00:06:12;296.73;;;45.20;;
34212;SDS011;20477;51.390;8.102;2023-04-16T00:08:42;303.00;;;46.72;;
34212;SDS011;20477;51.390;8.102;2023-04-16T00:11:11;277.27;;;45.72;;
34212;SDS011;20477;51.390;8.102;2023-04-16T00:13:40;256.98;;;45.55;;
34212;SDS011;20477;51.390;8.102;2023-04-16T00:16:08;160.40;;;40.63;;
34212;SDS011;20477;51.390;8.102;2023-04-16T00:18:36;126.47;;;39.05;;
34212;SDS011;20477;51.390;8.102;2023-04-16T00:21:05;150.98;;;40.13;;
34212;SDS011;20477;51.390;8.102;2023-04-16T00:23:33;107.72;;;40.83;;
34212;SDS011;20477;51.390;8.102;2023-04-16T00:26:03;112.65;;;38.90;;
34212;SDS011;20477;51.390;8.102;2023-04-16T00:28:31;98.43;;;36.90;;
34212;SDS011;20477;51.390;8.102;2023-04-16T00:31:00;117.40;;;37.67;;
34212;SDS011;20477;51.390;8.102;2023-04-16T00:33:28;105.07;;;38.05;;
34212;SDS011;20477;51.390;8.102;2023-04-16T00:35:56;110.05;;;38.67;;
34212;SDS011;20477;51.390;8.102;2023-04-16T00:38:24;118.82;;;38.30;;
34212;SDS011;20477;51.390;8.102;2023-04-16T00:40:55;120.00;;;39.40;;
34212;SDS011;20477;51.390;8.102;2023-04-16T00:43:25;143.23;;;40.42;;
34212;SDS011;20477;51.390;8.102;2023-04-16T00:45:54;179.70;;;44.13;;
34212;SDS011;20477;51.390;8.102;2023-04-16T00:48:23;182.32;;;41.83;;
34212;SDS011;20477;51.390;8.102;2023-04-16T00:50:53;304.40;;;49.63;;
34212;SDS011;20477;51.390;8.102;2023-04-16T00:53:21;319.42;;;53.80;;
34212;SDS011;20477;51.390;8.102;2023-04-16T00:55:50;417.15;;;51.35;;
34212;SDS011;20477;51.390;8.102;2023-04-16T00:58:18;423.88;;;52.17;;
34212;SDS011;20477;51.390;8.102;2023-04-16T01:00:48;373.35;;;51.13;;
34212;SDS011;20477;51.390;8.102;2023-04-16T01:03:17;335.60;;;49.67;;
34212;SDS011;20477;51.390;8.102;2023-04-16T01:05:45;348.80;;;47.08;;
34212;SDS011;20477;51.390;8.102;2023-04-16T01:08:14;314.45;;;49.45;;
34212;SDS011;20477;51.390;8.102;2023-04-16T01:10:43;338.88;;;51.90;;
34212;SDS011;20477;51.390;8.102;2023-04-16T01:13:12;420.10;;;55.00;;
34212;SDS011;20477;51.390;8.102;2023-04-16T01:15:40;379.50;;;51.63;;
34212;SDS011;20477;51.390;8.102;2023-04-16T01:18:13;477.20;;;56.22;;
34212;SDS011;20477;51.390;8.102;2023-04-16T01:20:43;332.52;;;47.65;;
34212;SDS011;20477;51.390;8.102;2023-04-16T01:23:12;367.17;;;49.75;;
34212;SDS011;20477;51.390;8.102;2023-04-16T01:25:40;446.38;;;56.42;;
34212;SDS011;20477;51.390;8.102;2023-04-16T01:28:08;324.08;;;48.17;;
34212;SDS011;20477;51.390;8.102;2023-04-16T01:30:36;490.05;;;56.13;;
34212;SDS011;20477;51.390;8.102;2023-04-16T01:33:04;400.02;;;53.03;;
34212;SDS011;20477;51.390;8.102;2023-04-16T01:35:33;429.85;;;53.97;;
34212;SDS011;20477;51.390;8.102;2023-04-16T01:38:03;498.52;;;57.88;;
34212;SDS011;20477;51.390;8.102;2023-04-16T01:40:33;440.13;;;54.35;;
34212;SDS011;20477;51.390;8.102;2023-04-16T01:43:01;540.47;;;60.67;;
34212;SDS011;20477;51.390;8.102;2023-04-16T01:45:30;383.90;;;53.33;;
34212;SDS011;20477;51.390;8.102;2023-04-16T01:47:59;426.42;;;54.20;;
34212;SDS011;20477;51.390;8.102;2023-04-16T01:50:27;456.63;;;58.15;;
34212;SDS011;20477;51.390;8.102;2023-04-16T01:52:57;518.08;;;57.85;;
34212;SDS011;20477;51.390;8.102;2023-04-16T01:55:28;331.92;;;52.40;;
34212;SDS011;20477;51.390;8.102;2023-04-16T01:57:56;396.98;;;53.25;;
34212;SDS011;20477;51.390;8.102;2023-04-16T02:00:24;365.08;;;52.20;;
34212;SDS011;20477;51.390;8.102;2023-04-16T02:02:52;452.55;;;56.72;;
34212;SDS011;20477;51.390;8.102;2023-04-16T02:05:21;525.78;;;58.10;;
34212;SDS011;20477;51.390;8.102;2023-04-16T02:07:49;453.90;;;58.88;;
34212;SDS011;20477;51.390;8.102;2023-04-16T02:10:17;540.60;;;60.08;;
34212;SDS011;20477;51.390;8.102;2023-04-16T02:12:47;544.10;;;59.80;;
34212;SDS011;20477;51.390;8.102;2023-04-16T02:15:16;508.48;;;57.67;;
34212;SDS011;20477;51.390;8.102;2023-04-16T02:17:44;653.03;;;63.58;;
34212;SDS011;20477;51.390;8.102;2023-04-16T02:20:14;539.08;;;56.58;;
34212;SDS011;20477;51.390;8.102;2023-04-16T02:22:43;541.75;;;55.80;;
34212;SDS011;20477;51.390;8.102;2023-04-16T02:25:11;482.00;;;55.08;;
34212;SDS011;20477;51.390;8.102;2023-04-16T02:27:39;642.10;;;66.00;;
34212;SDS011;20477;51.390;8.102;2023-04-16T02:30:09;496.75;;;58.78;;
34212;SDS011;20477;51.390;8.102;2023-04-16T02:32:38;218.40;;;47.25;;
34212;SDS011;20477;51.390;8.102;2023-04-16T02:35:06;296.70;;;49.67;;
34212;SDS011;20477;51.390;8.102;2023-04-16T02:37:34;295.98;;;48.50;;
34212;SDS011;20477;51.390;8.102;2023-04-16T02:40:06;279.98;;;47.65;;
34212;SDS011;20477;51.390;8.102;2023-04-16T02:42:35;209.90;;;50.90;;
34212;SDS011;20477;51.390;8.102;2023-04-16T02:45:04;197.88;;;42.55;;
34212;SDS011;20477;51.390;8.102;2023-04-16T02:47:34;306.40;;;47.97;;
34212;SDS011;20477;51.390;8.102;2023-04-16T02:50:03;172.25;;;43.55;;
34212;SDS011;20477;51.390;8.102;2023-04-16T02:52:31;137.82;;;47.85;;
34212;SDS011;20477;51.390;8.102;2023-04-16T02:54:59;130.90;;;40.10;;
34212;SDS011;20477;51.390;8.102;2023-04-16T02:57:28;156.73;;;40.45;;
34212;SDS011;20477;51.390;8.102;2023-04-16T02:59:56;172.88;;;44.20;;
34212;SDS011;20477;51.390;8.102;2023-04-16T03:02:24;123.28;;;40.90;;
34212;SDS011;20477;51.390;8.102;2023-04-16T03:04:54;152.63;;;43.30;;
34212;SDS011;20477;51.390;8.102;2023-04-16T03:07:22;138.45;;;43.75;;
34212;SDS011;20477;51.390;8.102;2023-04-16T03:09:50;140.75;;;41.92;;
34212;SDS011;20477;51.390;8.102;2023-04-16T03:12:18;140.30;;;41.95;;
34212;SDS011;20477;51.390;8.102;2023-04-16T03:14:46;133.13;;;43.28;;
34212;SDS011;20477;51.390;8.102;2023-04-16T03:17:14;132.00;;;41.63;;
34212;SDS011;20477;51.390;8.102;2023-04-16T03:19:43;124.13;;;42.47;;
34212;SDS011;20477;51.390;8.102;2023-04-16T03:22:12;124.25;;;41.17;;
34212;SDS011;20477;51.390;8.102;2023-04-16T03:24:40;131.25;;;43.15;;
34212;SDS011;20477;51.390;8.102;2023-04-16T03:27:08;130.50;;;41.33;;
34212;SDS011;20477;51.390;8.102;2023-04-16T03:29:37;117.18;;;42.47;;
34212;SDS011;20477;51.390;8.102;2023-04-16T03:32:05;145.93;;;45.60;;
34212;SDS011;20477;51.390;8.102;2023-04-16T03:34:33;142.77;;;45.63;;
34212;SDS011;20477;51.390;8.102;2023-04-16T03:37:02;168.25;;;49.85;;
34212;SDS011;20477;51.390;8.102;2023-04-16T03:39:33;141.05;;;47.92;;
34212;SDS011;20477;51.390;8.102;2023-04-16T03:42:01;160.80;;;53.03;;
34212;SDS011;20477;51.390;8.102;2023-04-16T03:44:29;159.32;;;50.47;;
34212;SDS011;20477;51.390;8.102;2023-04-16T03:46:58;156.70;;;49.08;;
34212;SDS011;20477;51.390;8.102;2023-04-16T03:49:26;149.85;;;50.45;;
34212;SDS011;20477;51.390;8.102;2023-04-16T03:51:54;151.52;;;55.15;;
34212;SDS011;20477;51.390;8.102;2023-04-16T03:54:22;156.35;;;55.70;;
34212;SDS011;20477;51.390;8.102;2023-04-16T03:56:51;149.98;;;53.83;;
34212;SDS011;20477;51.390;8.102;2023-04-16T03:59:19;142.25;;;54.17;;
34212;SDS011;20477;51.390;8.102;2023-04-16T04:01:48;147.57;;;55.95;;
34212;SDS011;20477;51.390;8.102;2023-04-16T04:04:16;143.93;;;54.83;;
34212;SDS011;20477;51.390;8.102;2023-04-16T04:06:44;144.95;;;54.92;;
34212;SDS011;20477;51.390;8.102;2023-04-16T04:09:12;151.75;;;54.70;;
34212;SDS011;20477;51.390;8.102;2023-04-16T04:11:42;140.38;;;56.20;;
34212;SDS011;20477;51.390;8.102;2023-04-16T04:14:11;158.20;;;59.83;;
34212;SDS011;20477;51.390;8.102;2023-04-16T04:16:39;163.85;;;61.00;;
34212;SDS011;20477;51.390;8.102;2023-04-16T04:19:08;158.35;;;61.15;;
34212;SDS011;20477;51.390;8.102;2023-04-16T04:21:37;160.00;;;59.70;;
34212;SDS011;20477;51.390;8.102;2023-04-16T04:24:05;161.30;;;60.95;;
34212;SDS011;20477;51.390;8.102;2023-04-16T04:26:33;147.10;;;58.00;;
34212;SDS011;20477;51.390;8.102;2023-04-16T04:29:01;160.82;;;60.13;;
34212;SDS011;20477;51.390;8.102;2023-04-16T04:31:31;153.45;;;58.50;;
34212;SDS011;20477;51.390;8.102;2023-04-16T04:33:59;135.63;;;58.28;;
34212;SDS011;20477;51.390;8.102;2023-04-16T04:36:27;149.60;;;58.28;;
34212;SDS011;20477;51.390;8.102;2023-04-16T04:38:55;158.63;;;58.20;;
34212;SDS011;20477;51.390;8.102;2023-04-16T04:41:23;152.25;;;60.25;;
34212;SDS011;20477;51.390;8.102;2023-04-16T04:43:52;146.50;;;58.15;;
34212;SDS011;20477;51.390;8.102;2023-04-16T04:46:20;142.55;;;58.00;;
34212;SDS011;20477;51.390;8.102;2023-04-16T04:48:49;148.27;;;58.95;;
34212;SDS011;20477;51.390;8.102;2023-04-16T04:51:18;141.63;;;56.97;;
34212;SDS011;20477;51.390;8.102;2023-04-16T04:53:46;167.30;;;61.80;;
34212;SDS011;20477;51.390;8.102;2023-04-16T04:56:14;160.23;;;65.35;;
34212;SDS011;20477;51.390;8.102;2023-04-16T04:58:42;160.60;;;60.13;;
34212;SDS011;20477;51.390;8.102;2023-04-16T05:01:10;171.63;;;65.82;;
34212;SDS011;20477;51.390;8.102;2023-04-16T05:03:38;157.90;;;61.15;;
34212;SDS011;20477;51.390;8.102;2023-04-16T05:06:08;171.45;;;61.80;;
34212;SDS011;20477;51.390;8.102;2023-04-16T05:08:36;153.48;;;62.13;;
34212;SDS011;20477;51.390;8.102;2023-04-16T05:11:04;161.10;;;62.45;;
34212;SDS011;20477;51.390;8.102;2023-04-16T05:13:32;159.75;;;61.38;;
34212;SDS011;20477;51.390;8.102;2023-04-16T05:16:00;164.73;;;60.28;;
34212;SDS011;20477;51.390;8.102;2023-04-16T05:18:29;160.20;;;63.05;;
34212;SDS011;20477;51.390;8.102;2023-04-16T05:20:58;166.55;;;63.40;;
34212;SDS011;20477;51.390;8.102;2023-04-16T05:23:28;163.55;;;62.35;;
34212;SDS011;20477;51.390;8.102;2023-04-16T05:25:56;165.82;;;64.25;;
34212;SDS011;20477;51.390;8.102;2023-04-16T05:28:24;176.27;;;60.90;;
34212;SDS011;20477;51.390;8.102;2023-04-16T05:30:52;154.95;;;63.13;;
34212;SDS011;20477;51.390;8.102;2023-04-16T05:33:20;176.80;;;67.57;;
34212;SDS011;20477;51.390;8.102;2023-04-16T05:35:48;163.32;;;61.13;;
34212;SDS011;20477;51.390;8.102;2023-04-16T05:38:16;158.85;;;61.10;;
34212;SDS011;20477;51.390;8.102;2023-04-16T05:40:46;163.55;;;62.38;;
34212;SDS011;20477;51.390;8.102;2023-04-16T05:43:14;162.38;;;62.30;;
34212;SDS011;20477;51.390;8.102;2023-04-16T05:45:42;158.63;;;64.15;;
34212;SDS011;20477;51.390;8.102;2023-04-16T05:48:10;139.35;;;60.72;;
34212;SDS011;20477;51.390;8.102;2023-04-16T05:50:39;167.50;;;61.78;;
34212;SDS011;20477;51.390;8.102;2023-04-16T05:53:07;151.75;;;60.50;;
34212;SDS011;20477;51.390;8.102;2023-04-16T05:55:36;158.88;;;60.13;;
34212;SDS011;20477;51.390;8.102;2023-04-16T05:58:05;151.00;;;62.45;;
34212;SDS011;20477;51.390;8.102;2023-04-16T06:00:33;161.77;;;61.17;;
34212;SDS011;20477;51.390;8.102;2023-04-16T06:03:02;166.20;;;59.83;;
34212;SDS011;20477;51.390;8.102;2023-04-16T06:05:30;144.18;;;61.80;;
34212;SDS011;20477;51.390;8.102;2023-04-16T06:07:58;163.05;;;62.85;;
34212;SDS011;20477;51.390;8.102;2023-04-16T06:10:26;157.65;;;63.72;;
34212;SDS011;20477;51.390;8.102;2023-04-16T06:12:55;154.45;;;62.72;;
34212;SDS011;20477;51.390;8.102;2023-04-16T06:15:24;138.43;;;63.08;;
34212;SDS011;20477;51.390;8.102;2023-04-16T06:17:53;139.70;;;60.17;;
34212;SDS011;20477;51.390;8.102;2023-04-16T06:20:24;112.85;;;57.25;;
34212;SDS011;20477;51.390;8.102;2023-04-16T06:22:52;121.82;;;57.38;;
34212;SDS011;20477;51.390;8.102;2023-04-16T06:25:21;121.25;;;58.88;;
34212;SDS011;20477;51.390;8.102;2023-04-16T06:27:50;116.05;;;57.58;;
34212;SDS011;20477;51.390;8.102;2023-04-16T06:30:18;109.63;;;58.20;;
34212;SDS011;20477;51.390;8.102;2023-04-16T06:32:47;109.53;;;56.22;;
34212;SDS011;20477;51.390;8.102;2023-04-16T06:35:16;101.50;;;53.03;;
34212;SDS011;20477;51.390;8.102;2023-04-16T06:37:45;112.90;;;55.13;;
34212;SDS011;20477;51.390;8.102;2023-04-16T06:40:13;99.15;;;53.35;;
34212;SDS011;20477;51.390;8.102;2023-04-16T06:42:41;109.60;;;54.13;;
34212;SDS011;20477;51.390;8.102;2023-04-16T06:45:11;108.13;;;54.20;;
34212;SDS011;20477;51.390;8.102;2023-04-16T06:47:39;100.60;;;54.53;;
34212;SDS011;20477;51.390;8.102;2023-04-16T06:50:18;98.28;;;51.53;;
34212;SDS011;20477;51.390;8.102;2023-04-16T06:53:10;94.05;;;52.38;;
34212;SDS011;20477;51.390;8.102;2023-04-16T06:55:38;90.63;;;51.90;;
34212;SDS011;20477;51.390;8.102;2023-04-16T06:58:06;90.93;;;51.30;;
34212;SDS011;20477;51.390;8.102;2023-04-16T07:00:34;90.15;;;49.58;;
34212;SDS011;20477;51.390;8.102;2023-04-16T07:03:02;99.30;;;53.72;;
34212;SDS011;20477;51.390;8.102;2023-04-16T07:05:32;100.07;;;52.72;;
34212;SDS011;20477;51.390;8.102;2023-04-16T07:08:00;95.60;;;52.38;;
34212;SDS011;20477;51.390;8.102;2023-04-16T07:10:28;92.55;;;51.90;;
34212;SDS011;20477;51.390;8.102;2023-04-16T07:12:56;101.53;;;52.50;;
34212;SDS011;20477;51.390;8.102;2023-04-16T07:15:26;91.30;;;50.50;;
34212;SDS011;20477;51.390;8.102;2023-04-16T07:17:54;96.40;;;53.28;;
34212;SDS011;20477;51.390;8.102;2023-04-16T07:20:23;95.85;;;54.45;;
34212;SDS011;20477;51.390;8.102;2023-04-16T07:22:52;89.35;;;52.80;;
34212;SDS011;20477;51.390;8.102;2023-04-16T07:25:20;96.55;;;53.90;;
34212;SDS011;20477;51.390;8.102;2023-04-16T07:27:49;92.53;;;51.45;;
34212;SDS011;20477;51.390;8.102;2023-04-16T07:30:17;93.70;;;50.80;;
34212;SDS011;20477;51.390;8.102;2023-04-16T07:32:45;91.80;;;50.08;;
34212;SDS011;20477;51.390;8.102;2023-04-16T07:35:13;86.05;;;50.88;;
34212;SDS011;20477;51.390;8.102;2023-04-16T07:37:42;85.88;;;49.10;;
34212;SDS011;20477;51.390;8.102;2023-04-16T07:40:11;89.68;;;49.42;;
34212;SDS011;20477;51.390;8.102;2023-04-16T07:42:40;93.18;;;50.40;;
34212;SDS011;20477;51.390;8.102;2023-04-16T07:45:08;93.47;;;48.70;;
34212;SDS011;20477;51.390;8.102;2023-04-16T07:47:37;98.03;;;52.15;;
34212;SDS011;20477;51.390;8.102;2023-04-16T07:50:06;109.20;;;57.75;;
34212;SDS011;20477;51.390;8.102;2023-04-16T07:52:35;106.00;;;55.97;;
34212;SDS011;20477;51.390;8.102;2023-04-16T07:55:06;103.00;;;57.47;;
34212;SDS011;20477;51.390;8.102;2023-04-16T07:57:36;115.75;;;59.20;;
34212;SDS011;20477;51.390;8.102;2023-04-16T08:00:05;108.57;;;55.65;;
34212;SDS011;20477;51.390;8.102;2023-04-16T08:02:34;102.57;;;54.92;;
34212;SDS011;20477;51.390;8.102;2023-04-16T08:05:02;105.63;;;55.95;;
34212;SDS011;20477;51.390;8.102;2023-04-16T08:07:31;106.22;;;53.42;;
34212;SDS011;20477;51.390;8.102;2023-04-16T08:10:00;109.18;;;56.47;;
34212;SDS011;20477;51.390;8.102;2023-04-16T08:12:28;114.10;;;56.83;;
34212;SDS011;20477;51.390;8.102;2023-04-16T08:14:58;111.10;;;57.70;;
34212;SDS011;20477;51.390;8.102;2023-04-16T08:17:26;107.80;;;60.03;;
34212;SDS011;20477;51.390;8.102;2023-04-16T08:19:55;119.55;;;58.08;;
34212;SDS011;20477;51.390;8.102;2023-04-16T08:22:23;114.90;;;59.75;;
34212;SDS011;20477;51.390;8.102;2023-04-16T08:24:51;114.80;;;56.35;;
34212;SDS011;20477;51.390;8.102;2023-04-16T08:27:20;111.10;;;58.08;;
34212;SDS011;20477;51.390;8.102;2023-04-16T08:29:48;117.40;;;59.92;;
34212;SDS011;20477;51.390;8.102;2023-04-16T08:32:18;118.97;;;59.22;;
34212;SDS011;20477;51.390;8.102;2023-04-16T08:34:47;111.93;;;58.83;;
34212;SDS011;20477;51.390;8.102;2023-04-16T08:37:15;112.38;;;57.38;;
34212;SDS011;20477;51.390;8.102;2023-04-16T08:39:43;103.53;;;56.55;;
34212;SDS011;20477;51.390;8.102;2023-04-16T08:42:12;106.70;;;58.83;;
34212;SDS011;20477;51.390;8.102;2023-04-16T08:44:47;108.93;;;59.13;;
34212;SDS011;20477;51.390;8.102;2023-04-16T08:47:15;102.05;;;55.75;;
34212;SDS011;20477;51.390;8.102;2023-04-16T08:49:45;96.80;;;53.25;;
34212;SDS011;20477;51.390;8.102;2023-04-16T08:52:14;94.78;;;51.72;;
34212;SDS011;20477;51.390;8.102;2023-04-16T08:54:45;95.35;;;53.55;;
34212;SDS011;20477;51.390;8.102;2023-04-16T08:57:22;111.30;;;56.55;;
34212;SDS011;20477;51.390;8.102;2023-04-16T08:59:50;94.97;;;54.65;;
34212;SDS011;20477;51.390;8.102;2023-04-16T09:02:20;103.85;;;55.05;;
34212;SDS011;20477;51.390;8.102;2023-04-16T09:04:50;109.60;;;56.80;;
34212;SDS011;20477;51.390;8.102;2023-04-16T09:07:20;111.57;;;57.28;;
34212;SDS011;20477;51.390;8.102;2023-04-16T09:09:48;107.25;;;56.88;;
34212;SDS011;20477;51.390;8.102;2023-04-16T09:12:21;108.97;;;57.83;;
34212;SDS011;20477;51.390;8.102;2023-04-16T09:14:50;120.18;;;62.13;;
34212;SDS011;20477;51.390;8.102;2023-04-16T09:17:18;110.20;;;57.08;;
34212;SDS011;20477;51.390;8.102;2023-04-16T09:19:46;108.07;;;57.60;;
34212;SDS011;20477;51.390;8.102;2023-04-16T09:22:16;112.63;;;60.35;;
34212;SDS011;20477;51.390;8.102;2023-04-16T09:24:44;113.32;;;62.22;;
34212;SDS011;20477;51.390;8.102;2023-04-16T09:27:12;114.20;;;58.97;;
34212;SDS011;20477;51.390;8.102;2023-04-16T09:29:41;114.63;;;57.97;;
34212;SDS011;20477;51.390;8.102;2023-04-16T09:32:10;109.63;;;59.03;;
34212;SDS011;20477;51.390;8.102;2023-04-16T09:34:53;114.32;;;59.10;;
34212;SDS011;20477;51.390;8.102;2023-04-16T09:37:24;105.65;;;55.45;;
34212;SDS011;20477;51.390;8.102;2023-04-16T09:39:53;113.38;;;62.25;;
34212;SDS011;20477;51.390;8.102;2023-04-16T09:42:23;122.22;;;59.55;;
34212;SDS011;20477;51.390;8.102;2023-04-16T09:44:53;112.10;;;60.85;;
34212;SDS011;20477;51.390;8.102;2023-04-16T09:47:26;110.88;;;60.53;;
34212;SDS011;20477;51.390;8.102;2023-04-16T09:50:05;106.20;;;59.78;;
34212;SDS011;20477;51.390;8.102;2023-04-16T09:52:38;100.60;;;57.15;;
34212;SDS011;20477;51.390;8.102;2023-04-16T09:55:09;103.18;;;57.92;;
34212;SDS011;20477;51.390;8.102;2023-04-16T09:57:37;104.50;;;58.78;;
34212;SDS011;20477;51.390;8.102;2023-04-16T10:00:06;92.40;;;52.80;;
34212;SDS011;20477;51.390;8.102;2023-04-16T10:02:35;99.10;;;55.92;;
34212;SDS011;20477;51.390;8.102;2023-04-16T10:05:07;99.22;;;56.55;;
34212;SDS011;20477;51.390;8.102;2023-04-16T10:07:36;86.07;;;52.67;;
34212;SDS011;20477;51.390;8.102;2023-04-16T10:10:06;94.50;;;54.47;;
34212;SDS011;20477;51.390;8.102;2023-04-16T10:12:37;92.72;;;53.03;;
34212;SDS011;20477;51.390;8.102;2023-04-16T10:15:05;80.00;;;49.22;;
34212;SDS011;20477;51.390;8.102;2023-04-16T10:17:34;80.93;;;50.35;;
34212;SDS011;20477;51.390;8.102;2023-04-16T10:20:03;79.88;;;48.47;;
34212;SDS011;20477;51.390;8.102;2023-04-16T10:22:33;79.53;;;48.25;;
34212;SDS011;20477;51.390;8.102;2023-04-16T10:25:01;72.35;;;46.70;;
34212;SDS011;20477;51.390;8.102;2023-04-16T10:27:31;74.25;;;46.72;;
34212;SDS011;20477;51.390;8.102;2023-04-16T10:30:00;72.47;;;46.15;;
34212;SDS011;20477;51.390;8.102;2023-04-16T10:32:29;74.75;;;47.10;;
34212;SDS011;20477;51.390;8.102;2023-04-16T10:34:58;73.10;;;46.00;;
34212;SDS011;20477;51.390;8.102;2023-04-16T10:37:29;71.65;;;44.97;;
34212;SDS011;20477;51.390;8.102;2023-04-16T10:39:57;70.35;;;45.15;;
34212;SDS011;20477;51.390;8.102;2023-04-16T10:42:26;71.45;;;46.22;;
34212;SDS011;20477;51.390;8.102;2023-04-16T10:44:57;59.65;;;42.95;;
34212;SDS011;20477;51.390;8.102;2023-04-16T10:47:26;61.88;;;40.78;;
34212;SDS011;20477;51.390;8.102;2023-04-16T10:49:56;66.80;;;41.95;;
34212;SDS011;20477;51.390;8.102;2023-04-16T10:52:24;58.08;;;39.60;;
34212;SDS011;20477;51.390;8.102;2023-04-16T10:54:56;55.88;;;38.33;;
34212;SDS011;20477;51.390;8.102;2023-04-16T10:57:26;55.80;;;38.47;;
34212;SDS011;20477;51.390;8.102;2023-04-16T10:59:57;62.80;;;38.08;;
34212;SDS011;20477;51.390;8.102;2023-04-16T11:02:27;56.40;;;37.75;;
34212;SDS011;20477;51.390;8.102;2023-04-16T11:04:56;52.50;;;36.90;;
34212;SDS011;20477;51.390;8.102;2023-04-16T11:07:32;52.95;;;35.17;;
34212;SDS011;20477;51.390;8.102;2023-04-16T11:10:02;48.70;;;35.53;;
34212;SDS011;20477;51.390;8.102;2023-04-16T11:12:32;47.58;;;35.22;;
34212;SDS011;20477;51.390;8.102;2023-04-16T11:15:05;57.13;;;36.83;;
34212;SDS011;20477;51.390;8.102;2023-04-16T11:17:35;51.05;;;35.10;;
34212;SDS011;20477;51.390;8.102;2023-04-16T11:20:05;58.05;;;35.80;;
34212;SDS011;20477;51.390;8.102;2023-04-16T11:22:46;53.92;;;35.97;;
34212;SDS011;20477;51.390;8.102;2023-04-16T11:25:18;52.63;;;36.75;;
34212;SDS011;20477;51.390;8.102;2023-04-16T11:27:46;54.13;;;36.45;;
34212;SDS011;20477;51.390;8.102;2023-04-16T11:30:16;50.58;;;34.85;;
34212;SDS011;20477;51.390;8.102;2023-04-16T11:32:45;51.13;;;33.85;;
34212;SDS011;20477;51.390;8.102;2023-04-16T11:35:14;51.25;;;36.08;;
34212;SDS011;20477;51.390;8.102;2023-04-16T11:37:43;53.10;;;37.17;;
34212;SDS011;20477;51.390;8.102;2023-04-16T11:40:11;53.92;;;36.33;;
34212;SDS011;20477;51.390;8.102;2023-04-16T11:42:40;48.20;;;35.47;;
34212;SDS011;20477;51.390;8.102;2023-04-16T11:45:10;52.13;;;36.08;;
34212;SDS011;20477;51.390;8.102;2023-04-16T11:47:43;51.10;;;36.42;;
34212;SDS011;20477;51.390;8.102;2023-04-16T11:50:16;53.08;;;37.13;;
34212;SDS011;20477;51.390;8.102;2023-04-16T11:52:45;59.92;;;36.88;;
34212;SDS011;20477;51.390;8.102;2023-04-16T11:55:14;50.55;;;36.40;;
34212;SDS011;20477;51.390;8.102;2023-04-16T11:57:42;52.42;;;36.88;;
34212;SDS011;20477;51.390;8.102;2023-04-16T12:00:11;59.88;;;36.50;;
34212;SDS011;20477;51.390;8.102;2023-04-16T12:02:40;49.95;;;35.97;;
34212;SDS011;20477;51.390;8.102;2023-04-16T12:05:27;47.38;;;34.45;;
34212;SDS011;20477;51.390;8.102;2023-04-16T12:07:57;50.38;;;36.97;;
34212;SDS011;20477;51.390;8.102;2023-04-16T12:10:26;49.80;;;34.35;;
34212;SDS011;20477;51.390;8.102;2023-04-16T12:13:09;49.75;;;35.20;;
34212;SDS011;20477;51.390;8.102;2023-04-16T12:15:45;53.85;;;37.10;;
34212;SDS011;20477;51.390;8.102;2023-04-16T12:18:15;50.35;;;36.20;;
34212;SDS011;20477;51.390;8.102;2023-04-16T12:20:44;55.65;;;37.95;;
34212;SDS011;20477;51.390;8.102;2023-04-16T12:23:21;57.03;;;39.50;;
34212;SDS011;20477;51.390;8.102;2023-04-16T12:25:50;57.83;;;38.78;;
34212;SDS011;20477;51.390;8.102;2023-04-16T12:28:28;55.17;;;37.13;;
34212;SDS011;20477;51.390;8.102;2023-04-16T12:30:56;51.65;;;38.03;;
34212;SDS011;20477;51.390;8.102;2023-04-16T12:33:26;46.45;;;35.60;;
34212;SDS011;20477;51.390;8.102;2023-04-16T12:35:54;56.72;;;36.95;;
34212;SDS011;20477;51.390;8.102;2023-04-16T12:38:22;51.40;;;35.70;;
34212;SDS011;20477;51.390;8.102;2023-04-16T12:40:52;51.28;;;34.90;;
34212;SDS011;20477;51.390;8.102;2023-04-16T12:43:23;48.95;;;34.63;;
34212;SDS011;20477;51.390;8.102;2023-04-16T12:45:51;49.80;;;35.53;;
34212;SDS011;20477;51.390;8.102;2023-04-16T12:48:19;47.47;;;34.50;;
34212;SDS011;20477;51.390;8.102;2023-04-16T12:50:51;49.78;;;34.85;;
34212;SDS011;20477;51.390;8.102;2023-04-16T12:53:20;51.55;;;33.33;;
34212;SDS011;20477;51.390;8.102;2023-04-16T12:55:48;49.60;;;33.35;;
34212;SDS011;20477;51.390;8.102;2023-04-16T12:58:16;47.40;;;33.53;;
34212;SDS011;20477;51.390;8.102;2023-04-16T13:00:44;49.58;;;33.85;;
34212;SDS011;20477;51.390;8.102;2023-04-16T13:03:13;47.55;;;32.83;;
34212;SDS011;20477;51.390;8.102;2023-04-16T13:05:41;52.92;;;36.20;;
34212;SDS011;20477;51.390;8.102;2023-04-16T13:08:11;49.47;;;35.08;;
34212;SDS011;20477;51.390;8.102;2023-04-16T13:10:39;48.67;;;34.70;;
34212;SDS011;20477;51.390;8.102;2023-04-16T13:13:08;48.22;;;32.63;;
34212;SDS011;20477;51.390;8.102;2023-04-16T13:15:36;44.10;;;32.65;;
34212;SDS011;20477;51.390;8.102;2023-04-16T13:18:04;45.08;;;32.95;;
34212;SDS011;20477;51.390;8.102;2023-04-16T13:20:32;45.60;;;32.40;;
34212;SDS011;20477;51.390;8.102;2023-04-16T13:23:01;48.83;;;32.10;;
34212;SDS011;20477;51.390;8.102;2023-04-16T13:25:31;45.45;;;32.03;;
34212;SDS011;20477;51.390;8.102;2023-04-16T13:27:59;48.38;;;33.00;;
34212;SDS011;20477;51.390;8.102;2023-04-16T13:30:28;44.85;;;31.92;;
34212;SDS011;20477;51.390;8.102;2023-04-16T13:32:58;47.60;;;31.30;;
34212;SDS011;20477;51.390;8.102;2023-04-16T13:35:27;44.55;;;32.00;;
34212;SDS011;20477;51.390;8.102;2023-04-16T13:37:56;42.95;;;31.20;;
34212;SDS011;20477;51.390;8.102;2023-04-16T13:40:24;46.40;;;32.00;;
34212;SDS011;20477;51.390;8.102;2023-04-16T13:42:53;44.15;;;31.38;;
34212;SDS011;20477;51.390;8.102;2023-04-16T13:45:21;47.35;;;32.30;;
34212;SDS011;20477;51.390;8.102;2023-04-16T13:47:50;45.83;;;31.77;;
34212;SDS011;20477;51.390;8.102;2023-04-16T13:50:18;46.25;;;32.33;;
34212;SDS011;20477;51.390;8.102;2023-04-16T13:52:46;46.05;;;32.15;;
34212;SDS011;20477;51.390;8.102;2023-04-16T13:55:15;50.20;;;34.60;;
34212;SDS011;20477;51.390;8.102;2023-04-16T13:57:44;47.47;;;33.15;;
34212;SDS011;20477;51.390;8.102;2023-04-16T14:00:15;50.20;;;34.05;;
34212;SDS011;20477;51.390;8.102;2023-04-16T14:02:44;44.95;;;33.00;;
34212;SDS011;20477;51.390;8.102;2023-04-16T14:05:14;42.95;;;31.80;;
34212;SDS011;20477;51.390;8.102;2023-04-16T14:07:42;47.05;;;32.90;;
34212;SDS011;20477;51.390;8.102;2023-04-16T14:10:11;48.47;;;32.33;;
34212;SDS011;20477;51.390;8.102;2023-04-16T14:12:40;43.60;;;32.00;;
34212;SDS011;20477;51.390;8.102;2023-04-16T14:15:08;48.13;;;31.80;;
34212;SDS011;20477;51.390;8.102;2023-04-16T14:17:38;47.70;;;32.08;;
34212;SDS011;20477;51.390;8.102;2023-04-16T14:20:06;42.10;;;33.15;;
34212;SDS011;20477;51.390;8.102;2023-04-16T14:22:35;48.33;;;32.45;;
34212;SDS011;20477;51.390;8.102;2023-04-16T14:25:04;44.85;;;31.85;;